createdAt,value
2023-05-23T00:01:08.060Z,102011.03
2023-05-23T00:03:37.516Z,102006.03
2023-05-23T00:06:06.855Z,102009.25
2023-05-23T00:08:35.972Z,102008.00
2023-05-23T00:11:02.467Z,102014.75
2023-05-23T00:13:28.974Z,102008.97
2023-05-23T00:15:57.615Z,102008.19
2023-05-23T00:18:26.473Z,102006.75
2023-05-23T00:20:53.037Z,102008.69
2023-05-23T00:23:20.849Z,102014.06
2023-05-23T00:25:55.180Z,102018.59
2023-05-23T00:28:25.880Z,102023.34
2023-05-23T00:30:54.822Z,102021.00
2023-05-23T00:33:22.250Z,102028.13
2023-05-23T00:35:49.250Z,102028.19
2023-05-23T00:38:18.630Z,102029.50
2023-05-23T00:40:48.221Z,102037.63
2023-05-23T00:43:14.869Z,102033.97
2023-05-23T00:45:41.565Z,102038.34
2023-05-23T00:48:09.068Z,102037.06
2023-05-23T00:50:36.762Z,102037.41
2023-05-23T00:53:05.776Z,102035.38
2023-05-23T00:55:35.233Z,102039.56
2023-05-23T00:58:01.880Z,102046.66
2023-05-23T01:00:28.985Z,102042.94
2023-05-23T01:02:55.796Z,102043.28
2023-05-23T01:05:26.918Z,102045.72
2023-05-23T01:07:56.996Z,102047.47
2023-05-23T01:10:26.814Z,102039.72
2023-05-23T01:13:01.621Z,102045.72
2023-05-23T01:15:47.976Z,102032.78
2023-05-23T01:18:24.431Z,102036.78
2023-05-23T01:20:56.133Z,102043.41
2023-05-23T01:23:28.454Z,102043.41
2023-05-23T01:25:59.454Z,102034.81
2023-05-23T01:28:32.137Z,102035.19
2023-05-23T01:31:02.287Z,102037.41
2023-05-23T01:33:29.085Z,102043.75
2023-05-23T01:36:02.173Z,102038.91
2023-05-23T01:38:28.660Z,102038.28
2023-05-23T01:40:58.249Z,102029.72
2023-05-23T01:43:27.502Z,102033.75
2023-05-23T01:45:58.732Z,102033.75
2023-05-23T01:48:28.683Z,102046.66
2023-05-23T01:50:59.079Z,102045.84
2023-05-23T01:53:26.665Z,102043.28
2023-05-23T01:55:53.972Z,102051.19
2023-05-23T01:58:23.208Z,102048.16
2023-05-23T02:00:49.932Z,102056.69
2023-05-23T02:03:16.725Z,102051.28
2023-05-23T02:05:46.058Z,102059.19
2023-05-23T02:08:14.882Z,102058.56
2023-05-23T02:10:48.804Z,102063.72
2023-05-23T02:13:15.349Z,102061.31
2023-05-23T02:15:42.115Z,102063.25
2023-05-23T02:18:08.974Z,102073.78
2023-05-23T02:20:35.645Z,102070.72
2023-05-23T02:23:04.326Z,102061.34
2023-05-23T02:25:30.866Z,102071.88
2023-05-23T02:28:00.004Z,102071.69
2023-05-23T02:30:31.416Z,102076.06
2023-05-23T02:33:05.364Z,102072.50
2023-05-23T02:35:36.653Z,102071.50
2023-05-23T02:38:03.214Z,102083.13
2023-05-23T02:40:29.761Z,102082.31
2023-05-23T02:42:58.539Z,102085.53
2023-05-23T02:45:29.663Z,102077.63
2023-05-23T02:47:56.250Z,102085.19
2023-05-23T02:50:25.367Z,102083.59
2023-05-23T02:52:51.909Z,102083.22
2023-05-23T02:55:20.763Z,102089.06
2023-05-23T02:57:47.229Z,102088.06
2023-05-23T03:00:15.630Z,102091.28
2023-05-23T03:02:42.973Z,102095.03
2023-05-23T03:05:11.906Z,102082.09
2023-05-23T03:07:40.845Z,102092.06
2023-05-23T03:10:08.104Z,102095.63
2023-05-23T03:12:34.652Z,102079.34
2023-05-23T03:15:03.479Z,102090.28
2023-05-23T03:17:29.952Z,102081.75
2023-05-23T03:19:59.014Z,102088.25
2023-05-23T03:22:30.362Z,102088.41
2023-05-23T03:24:59.124Z,102088.75
2023-05-23T03:27:30.478Z,102085.53
2023-05-23T03:29:56.963Z,102092.47
2023-05-23T03:32:23.431Z,102090.56
2023-05-23T03:34:49.899Z,102102.56
2023-05-23T03:37:18.673Z,102093.91
2023-05-23T03:39:47.494Z,102097.78
2023-05-23T03:42:16.321Z,102100.56
2023-05-23T03:44:45.422Z,102109.25
2023-05-23T03:47:12.049Z,102110.03
2023-05-23T03:49:40.968Z,102109.91
2023-05-23T03:52:07.917Z,102120.75
2023-05-23T03:54:34.397Z,102122.53
2023-05-23T03:57:03.570Z,102118.69
2023-05-23T03:59:32.403Z,102123.84
2023-05-23T04:02:01.307Z,102126.56
2023-05-23T04:04:31.334Z,102128.34
2023-05-23T04:06:59.023Z,102131.88
2023-05-23T04:09:27.947Z,102134.66
2023-05-23T04:11:54.424Z,102133.53
2023-05-23T04:14:23.176Z,102136.63
2023-05-23T04:16:49.757Z,102143.56
2023-05-23T04:19:18.420Z,102143.38
2023-05-23T04:21:44.957Z,102148.84
2023-05-23T04:24:11.514Z,102155.97
2023-05-23T04:26:37.973Z,102148.22
2023-05-23T04:29:06.855Z,102158.06
2023-05-23T04:31:34.288Z,102162.91
2023-05-23T04:34:02.446Z,102161.16
2023-05-23T04:36:31.436Z,102162.78
2023-05-23T04:38:58.010Z,102163.25
2023-05-23T04:41:24.597Z,102169.84
2023-05-23T04:43:54.705Z,102168.09
2023-05-23T04:46:27.080Z,102172.63
2023-05-23T04:48:55.083Z,102181.66
2023-05-23T04:51:22.076Z,102184.06
2023-05-23T04:53:52.603Z,102180.53
2023-05-23T04:56:21.790Z,102173.44
2023-05-23T04:58:50.764Z,102186.34
2023-05-23T05:01:20.674Z,102187.47
2023-05-23T05:03:48.775Z,102205.06
2023-05-23T05:06:18.387Z,102200.84
2023-05-23T05:08:45.354Z,102203.28
2023-05-23T05:11:13.955Z,102210.38
2023-05-23T05:13:40.550Z,102216.00
2023-05-23T05:16:07.674Z,102215.06
2023-05-23T05:18:37.974Z,102222.00
2023-05-23T05:21:08.184Z,102225.69
2023-05-23T05:23:36.225Z,102230.66
2023-05-23T05:26:03.347Z,102230.34
2023-05-23T05:28:32.124Z,102242.28
2023-05-23T05:30:58.641Z,102247.91
2023-05-23T05:33:25.209Z,102250.66
2023-05-23T05:35:52.075Z,102250.66
2023-05-23T05:38:18.686Z,102247.28
2023-05-23T05:40:52.569Z,102244.69
2023-05-23T05:43:23.988Z,102256.63
2023-05-23T05:45:50.675Z,102249.38
2023-05-23T05:48:19.468Z,102255.19
2023-05-23T05:50:48.282Z,102269.03
2023-05-23T05:53:14.861Z,102260.84
2023-05-23T05:55:41.443Z,102270.50
2023-05-23T05:58:07.928Z,102267.13
2023-05-23T06:00:42.569Z,102270.97
2023-05-23T06:03:09.372Z,102277.59
2023-05-23T06:05:39.659Z,102282.91
2023-05-23T06:08:08.478Z,102286.63
2023-05-23T06:10:37.309Z,102287.44
2023-05-23T06:13:06.335Z,102290.19
2023-05-23T06:15:32.860Z,102296.31
2023-05-23T06:18:01.665Z,102291.47
2023-05-23T06:20:28.784Z,102292.78
2023-05-23T06:22:55.370Z,102285.97
2023-05-23T06:25:27.027Z,102292.78
2023-05-23T06:27:56.034Z,102294.03
2023-05-23T06:30:25.024Z,102287.13
2023-05-23T06:32:51.562Z,102288.88
2023-05-23T06:35:18.083Z,102281.47
2023-05-23T06:37:46.841Z,102294.34
2023-05-23T06:40:18.151Z,102294.06
2023-05-23T06:42:49.447Z,102295.50
2023-05-23T06:45:20.756Z,102298.41
2023-05-23T06:47:49.453Z,102303.06
2023-05-23T06:50:19.843Z,102303.06
2023-05-23T06:52:51.131Z,102304.66
2023-05-23T06:55:19.428Z,102301.75
2023-05-23T06:57:46.846Z,102306.44
2023-05-23T07:00:16.067Z,102314.50
2023-05-23T07:02:45.853Z,102311.59
2023-05-23T07:05:14.753Z,102320.13
2023-05-23T07:07:43.761Z,102320.47
2023-05-23T07:10:13.764Z,102316.41
2023-05-23T07:12:40.391Z,102317.72
2023-05-23T07:15:13.565Z,102312.38
2023-05-23T07:17:42.337Z,102327.38
2023-05-23T07:20:11.572Z,102325.44
2023-05-23T07:22:40.409Z,102330.09
2023-05-23T07:25:12.753Z,102339.31
2023-05-23T07:27:44.038Z,102330.31
2023-05-23T07:30:13.630Z,102334.97
2023-05-23T07:32:40.181Z,102338.03
2023-05-23T07:35:07.080Z,102344.00
2023-05-23T07:37:33.805Z,102347.72
2023-05-23T07:40:04.677Z,102342.88
2023-05-23T07:42:31.226Z,102354.31
2023-05-23T07:45:00.095Z,102352.88
2023-05-23T07:47:29.181Z,102349.50
2023-05-23T07:49:59.044Z,102348.56
2023-05-23T07:52:27.788Z,102343.91
2023-05-23T07:54:54.307Z,102350.06
2023-05-23T07:57:25.911Z,102344.72
2023-05-23T07:59:53.560Z,102359.06
2023-05-23T08:02:23.144Z,102351.31
2023-05-23T08:04:53.389Z,102363.59
2023-05-23T08:07:19.881Z,102348.75
2023-05-23T08:09:49.114Z,102358.09
2023-05-23T08:12:17.924Z,102358.38
2023-05-23T08:14:51.899Z,102361.91
2023-05-23T08:17:19.176Z,102363.81
2023-05-23T08:19:50.855Z,102368.25
2023-05-23T08:22:19.999Z,102361.94
2023-05-23T08:24:46.505Z,102361.88
2023-05-23T08:27:15.611Z,102364.94
2023-05-23T08:29:44.392Z,102365.22
2023-05-23T08:32:15.929Z,102372.88
2023-05-23T08:34:45.197Z,102374.53
2023-05-23T08:37:11.754Z,102385.41
2023-05-23T08:39:38.298Z,102386.66
2023-05-23T08:42:05.187Z,102392.31
2023-05-23T08:44:31.780Z,102387.63
2023-05-23T08:47:07.764Z,102397.34
2023-05-23T08:49:37.804Z,102393.22
2023-05-23T08:52:11.479Z,102393.94
2023-05-23T08:54:45.043Z,102407.22
2023-05-23T08:57:14.378Z,102399.81
2023-05-23T08:59:41.480Z,102408.81
2023-05-23T09:02:13.191Z,102407.22
2023-05-23T09:04:43.111Z,102406.03
2023-05-23T09:07:15.717Z,102412.75
2023-05-23T09:09:42.728Z,102415.34
2023-05-23T09:12:10.249Z,102413.72
2023-05-23T09:14:37.481Z,102412.22
2023-05-23T09:17:04.872Z,102408.84
2023-05-23T09:19:31.709Z,102415.97
2023-05-23T09:22:01.030Z,102414.06
2023-05-23T09:24:35.786Z,102413.34
2023-05-23T09:27:03.167Z,102418.50
2023-05-23T09:29:30.786Z,102433.78
2023-05-23T09:32:15.912Z,102435.59
2023-05-23T09:35:07.097Z,102429.53
2023-05-23T09:37:39.523Z,102425.22
2023-05-23T09:40:14.054Z,102430.06
2023-05-23T09:42:45.332Z,102428.69
2023-05-23T09:45:16.189Z,102433.97
2023-05-23T09:47:52.905Z,102427.22
2023-05-23T09:50:20.877Z,102429.53
2023-05-23T09:52:48.098Z,102427.44
2023-05-23T09:55:17.065Z,102423.97
2023-05-23T09:57:44.738Z,102433.63
2023-05-23T10:00:14.597Z,102427.00
2023-05-23T10:03:12.444Z,102432.38
2023-05-23T10:05:41.537Z,102434.75
2023-05-23T10:08:12.106Z,102443.59
2023-05-23T10:10:58.608Z,102448.44
2023-05-23T10:13:29.060Z,102447.78
2023-05-23T10:16:20.845Z,102440.97
2023-05-23T10:18:54.854Z,102437.47
2023-05-23T10:21:32.254Z,102445.16
2023-05-23T10:24:04.346Z,102443.66
2023-05-23T10:26:33.262Z,102447.94
2023-05-23T10:29:02.842Z,102449.34
2023-05-23T10:31:30.131Z,102460.56
2023-05-23T10:34:09.234Z,102453.47
2023-05-23T10:36:57.207Z,102452.06
2023-05-23T10:39:38.377Z,102450.88
2023-05-23T10:42:17.326Z,102458.97
2023-05-23T10:44:46.220Z,102458.78
2023-05-23T10:47:27.781Z,102462.13
2023-05-23T10:49:57.818Z,102460.38
2023-05-23T10:52:28.272Z,102467.41
2023-05-23T10:54:59.728Z,102460.38
2023-05-23T10:57:29.575Z,102470.13
2023-05-23T11:00:01.757Z,102464.38
2023-05-23T11:02:29.569Z,102467.41
2023-05-23T11:05:14.649Z,102472.19
2023-05-23T11:07:43.548Z,102464.63
2023-05-23T11:10:11.492Z,102470.56
2023-05-23T11:12:46.632Z,102464.66
2023-05-23T11:15:23.965Z,102467.22
2023-05-23T11:17:57.830Z,102462.69
2023-05-23T11:20:28.476Z,102458.72
2023-05-23T11:23:00.524Z,102469.75
2023-05-23T11:25:49.201Z,102468.53
2023-05-23T11:28:17.329Z,102464.94
2023-05-23T11:30:44.456Z,102461.63
2023-05-23T11:33:16.576Z,102474.88
2023-05-23T11:35:47.908Z,102470.38
2023-05-23T11:38:16.661Z,102471.44
2023-05-23T11:40:46.659Z,102473.47
2023-05-23T11:43:15.830Z,102475.63
2023-05-23T11:45:46.982Z,102479.38
2023-05-23T11:48:17.727Z,102481.81
2023-05-23T11:50:54.372Z,102483.50
2023-05-23T11:53:23.055Z,102483.91
2023-05-23T11:55:57.609Z,102475.91
2023-05-23T11:58:32.098Z,102482.59
2023-05-23T12:01:11.759Z,102489.66
2023-05-23T12:03:50.132Z,102487.03
2023-05-23T12:06:24.847Z,102494.88
2023-05-23T12:09:02.052Z,102487.34
2023-05-23T12:11:34.680Z,102485.16
2023-05-23T12:14:03.259Z,102490.19
2023-05-23T12:16:31.915Z,102488.47
2023-05-23T12:18:59.302Z,102489.16
2023-05-23T12:21:27.001Z,102486.81
2023-05-23T12:23:56.234Z,102482.31
2023-05-23T12:26:23.150Z,102491.97
2023-05-23T12:28:49.904Z,102491.03
2023-05-23T12:31:17.303Z,102493.56
2023-05-23T12:33:45.202Z,102494.13
2023-05-23T12:36:12.660Z,102496.34
2023-05-23T12:38:40.933Z,102497.78
2023-05-23T12:41:11.427Z,102493.75
2023-05-23T12:43:41.342Z,102496.75
2023-05-23T12:46:08.275Z,102504.91
2023-05-23T12:48:37.178Z,102504.72
2023-05-23T12:51:06.713Z,102506.53
2023-05-23T12:53:33.295Z,102505.47
2023-05-23T12:56:00.514Z,102505.34
2023-05-23T12:58:29.034Z,102504.25
2023-05-23T13:00:56.973Z,102499.63
2023-05-23T13:03:28.380Z,102504.84
2023-05-23T13:05:57.499Z,102498.47
2023-05-23T13:08:25.216Z,102506.28
2023-05-23T13:10:54.245Z,102497.84
2023-05-23T13:13:21.015Z,102509.50
2023-05-23T13:15:51.651Z,102504.81
2023-05-23T13:18:18.610Z,102498.66
2023-05-23T13:20:47.540Z,102506.16
2023-05-23T13:23:14.237Z,102505.47
2023-05-23T13:25:41.329Z,102504.97
2023-05-23T13:28:10.333Z,102496.47
2023-05-23T13:30:36.935Z,102502.69
2023-05-23T13:33:05.818Z,102511.28
2023-05-23T13:35:34.829Z,102515.97
2023-05-23T13:38:01.468Z,102506.44
2023-05-23T13:40:28.023Z,102517.97
2023-05-23T13:42:54.597Z,102515.88
2023-05-23T13:45:23.166Z,102522.28
2023-05-23T13:47:49.899Z,102521.31
2023-05-23T13:50:21.849Z,102520.19
2023-05-23T13:52:49.549Z,102517.72
2023-05-23T13:55:19.010Z,102512.00
2023-05-23T13:57:46.101Z,102518.44
2023-05-23T14:00:16.294Z,102518.06
2023-05-23T14:02:44.959Z,102506.63
2023-05-23T14:05:13.923Z,102512.16
2023-05-23T14:07:41.255Z,102514.41
2023-05-23T14:10:09.282Z,102519.78
2023-05-23T14:12:38.150Z,102510.41
2023-05-23T14:15:04.878Z,102516.16
2023-05-23T14:17:33.888Z,102517.47
2023-05-23T14:20:02.718Z,102504.19
2023-05-23T14:22:31.593Z,102517.97
2023-05-23T14:25:00.859Z,102513.44
2023-05-23T14:27:32.553Z,102520.56
2023-05-23T14:30:01.433Z,102517.72
2023-05-23T14:32:28.006Z,102515.66
2023-05-23T14:34:55.363Z,102517.00
2023-05-23T14:37:21.928Z,102509.63
2023-05-23T14:39:50.677Z,102506.63
2023-05-23T14:42:17.212Z,102512.44
2023-05-23T14:44:46.986Z,102509.50
2023-05-23T14:47:13.464Z,102507.31
2023-05-23T14:49:42.266Z,102518.47
2023-05-23T14:52:08.936Z,102513.00
2023-05-23T14:54:40.934Z,102507.59
2023-05-23T14:57:10.109Z,102516.91
2023-05-23T14:59:39.384Z,102516.91
2023-05-23T15:02:11.634Z,102526.06
2023-05-23T15:04:40.533Z,102532.03
2023-05-23T15:07:09.609Z,102524.63
2023-05-23T15:09:38.537Z,102524.88
2023-05-23T15:12:09.731Z,102527.50
2023-05-23T15:14:36.317Z,102531.03
2023-05-23T15:17:08.217Z,102525.50
2023-05-23T15:19:38.120Z,102524.19
2023-05-23T15:22:07.634Z,102530.50
2023-05-23T15:24:40.776Z,102527.00
2023-05-23T15:27:20.059Z,102539.13
2023-05-23T15:29:47.815Z,102538.25
2023-05-23T15:32:16.797Z,102539.81
2023-05-23T15:34:43.911Z,102536.34
2023-05-23T15:37:11.366Z,102529.06
2023-05-23T15:39:37.899Z,102537.13
2023-05-23T15:42:06.816Z,102534.63
2023-05-23T15:44:35.863Z,102541.19
2023-05-23T15:47:02.452Z,102538.50
2023-05-23T15:49:31.857Z,102538.53
2023-05-23T15:52:01.047Z,102527.19
2023-05-23T15:54:27.526Z,102529.03
2023-05-23T15:56:59.120Z,102538.09
2023-05-23T15:59:28.128Z,102534.13
2023-05-23T16:01:57.215Z,102539.81
2023-05-23T16:04:24.125Z,102541.38
2023-05-23T16:06:51.057Z,102530.66
2023-05-23T16:09:17.608Z,102545.97
2023-05-23T16:11:44.127Z,102540.91
2023-05-23T16:14:13.129Z,102542.56
2023-05-23T16:16:42.101Z,102543.94
2023-05-23T16:19:08.707Z,102546.97
2023-05-23T16:21:37.805Z,102547.63
2023-05-23T16:24:05.076Z,102555.16
2023-05-23T16:26:31.588Z,102553.75
2023-05-23T16:28:58.168Z,102551.22
2023-05-23T16:31:30.426Z,102552.56
2023-05-23T16:33:59.330Z,102554.19
2023-05-23T16:36:30.679Z,102547.59
2023-05-23T16:38:59.710Z,102541.16
2023-05-23T16:41:26.367Z,102543.72
2023-05-23T16:43:55.671Z,102539.84
2023-05-23T16:46:24.428Z,102539.38
2023-05-23T16:48:53.649Z,102540.03
2023-05-23T16:51:20.252Z,102536.94
2023-05-23T16:53:49.364Z,102535.19
2023-05-23T16:56:18.349Z,102541.16
2023-05-23T16:58:44.870Z,102538.25
2023-05-23T17:01:13.936Z,102543.44
2023-05-23T17:03:41.384Z,102543.75
2023-05-23T17:06:08.140Z,102548.63
2023-05-23T17:08:39.558Z,102552.50
2023-05-23T17:11:06.086Z,102547.34
2023-05-23T17:13:32.840Z,102540.53
2023-05-23T17:16:01.759Z,102542.47
2023-05-23T17:18:30.914Z,102541.66
2023-05-23T17:20:59.865Z,102539.72
2023-05-23T17:23:26.946Z,102538.41
2023-05-23T17:25:54.389Z,102549.88
2023-05-23T17:28:23.271Z,102544.38
2023-05-23T17:30:51.643Z,102549.19
2023-05-23T17:33:18.208Z,102548.56
2023-05-23T17:35:44.914Z,102548.09
2023-05-23T17:38:11.448Z,102552.06
2023-05-23T17:40:38.078Z,102549.50
2023-05-23T17:43:04.652Z,102560.63
2023-05-23T17:45:31.506Z,102558.72
2023-05-23T17:48:03.462Z,102555.63
2023-05-23T17:50:32.765Z,102559.69
2023-05-23T17:53:04.028Z,102565.50
2023-05-23T17:55:30.870Z,102569.28
2023-05-23T17:58:04.947Z,102570.03
2023-05-23T18:00:36.074Z,102565.97
2023-05-23T18:03:04.241Z,102572.22
2023-05-23T18:05:30.846Z,102564.31
2023-05-23T18:07:59.757Z,102576.50
2023-05-23T18:10:28.824Z,102575.34
2023-05-23T18:12:57.810Z,102574.38
2023-05-23T18:15:30.154Z,102571.78
2023-05-23T18:17:59.230Z,102564.72
2023-05-23T18:20:25.817Z,102560.84
2023-05-23T18:22:53.798Z,102567.00
2023-05-23T18:25:22.936Z,102568.31
2023-05-23T18:27:49.519Z,102573.31
2023-05-23T18:30:18.501Z,102576.66
2023-05-23T18:32:45.153Z,102569.53
2023-05-23T18:35:11.783Z,102582.97
2023-05-23T18:37:38.878Z,102573.38
2023-05-23T18:40:11.164Z,102578.47
2023-05-23T18:42:40.318Z,102581.13
2023-05-23T18:45:07.978Z,102571.69
2023-05-23T18:47:37.288Z,102577.44
2023-05-23T18:50:06.563Z,102577.75
2023-05-23T18:52:37.284Z,102580.09
2023-05-23T18:55:04.108Z,102584.06
2023-05-23T18:57:33.204Z,102583.69
2023-05-23T18:59:59.903Z,102585.22
2023-05-23T19:02:26.978Z,102586.47
2023-05-23T19:04:53.634Z,102580.94
2023-05-23T19:07:22.464Z,102583.94
2023-05-23T19:09:49.044Z,102588.59
2023-05-23T19:12:18.972Z,102598.38
2023-05-23T19:14:45.618Z,102602.47
2023-05-23T19:17:12.113Z,102603.72
2023-05-23T19:19:38.763Z,102608.31
2023-05-23T19:22:07.856Z,102600.91
2023-05-23T19:24:40.776Z,102603.91
2023-05-23T19:27:07.385Z,102608.66
2023-05-23T19:29:33.869Z,102602.19
2023-05-23T19:32:00.576Z,102606.13
2023-05-23T19:34:27.377Z,102603.97
2023-05-23T19:36:56.705Z,102612.94
2023-05-23T19:39:25.332Z,102612.41
2023-05-23T19:41:51.839Z,102610.25
2023-05-23T19:44:18.338Z,102612.59
2023-05-23T19:46:49.411Z,102621.38
2023-05-23T19:49:19.658Z,102621.94
2023-05-23T19:51:46.341Z,102623.84
2023-05-23T19:54:19.951Z,102618.31
2023-05-23T19:56:49.244Z,102628.06
2023-05-23T19:59:15.875Z,102632.78
2023-05-23T20:01:42.503Z,102637.56
2023-05-23T20:04:12.882Z,102647.44
2023-05-23T20:06:42.246Z,102647.06
2023-05-23T20:09:09.064Z,102646.50
2023-05-23T20:11:38.092Z,102662.31
2023-05-23T20:14:04.613Z,102653.00
2023-05-23T20:16:31.536Z,102651.78
2023-05-23T20:18:58.110Z,102642.72
2023-05-23T20:21:24.675Z,102648.81
2023-05-23T20:23:54.726Z,102648.25
2023-05-23T20:26:26.895Z,102650.16
2023-05-23T20:28:53.533Z,102651.88
2023-05-23T20:31:20.198Z,102648.50
2023-05-23T20:33:46.805Z,102644.31
2023-05-23T20:36:13.760Z,102640.13
2023-05-23T20:38:41.146Z,102637.00
2023-05-23T20:41:09.996Z,102633.47
2023-05-23T20:43:39.879Z,102632.00
2023-05-23T20:46:11.859Z,102637.13
2023-05-23T20:48:43.860Z,102635.75
2023-05-23T20:51:13.554Z,102631.16
2023-05-23T20:53:40.107Z,102629.78
2023-05-23T20:56:10.194Z,102631.03
2023-05-23T20:58:37.959Z,102641.53
2023-05-23T21:01:06.935Z,102637.75
2023-05-23T21:03:33.492Z,102640.72
2023-05-23T21:06:00.007Z,102637.72
2023-05-23T21:08:26.511Z,102645.69
2023-05-23T21:10:54.704Z,102653.91
2023-05-23T21:13:24.181Z,102654.72
2023-05-23T21:15:51.023Z,102652.28
2023-05-23T21:18:20.146Z,102646.47
2023-05-23T21:20:50.790Z,102644.03
2023-05-23T21:23:19.900Z,102647.66
2023-05-23T21:25:46.482Z,102652.66
2023-05-23T21:28:15.416Z,102648.72
2023-05-23T21:30:42.442Z,102650.59
2023-05-23T21:33:09.094Z,102645.47
2023-05-23T21:35:37.862Z,102637.50
2023-05-23T21:38:06.718Z,102631.56
2023-05-23T21:40:33.203Z,102640.97
2023-05-23T21:42:59.658Z,102631.09
2023-05-23T21:45:26.190Z,102634.97
2023-05-23T21:47:52.700Z,102636.28
2023-05-23T21:50:19.233Z,102632.91
2023-05-23T21:52:45.693Z,102635.44
2023-05-23T21:55:12.183Z,102636.19
2023-05-23T21:57:38.681Z,102633.75
2023-05-23T22:00:12.979Z,102629.56
2023-05-23T22:02:40.314Z,102633.44
2023-05-23T22:05:13.136Z,102632.34
2023-05-23T22:07:44.366Z,102640.53
2023-05-23T22:10:13.225Z,102648.56
2023-05-23T22:12:42.062Z,102643.69
2023-05-23T22:15:09.120Z,102644.75
2023-05-23T22:17:43.284Z,102639.06
2023-05-23T22:20:10.470Z,102634.44
2023-05-23T22:22:38.483Z,102641.69
2023-05-23T22:25:09.112Z,102642.84
2023-05-23T22:27:35.798Z,102644.13
2023-05-23T22:30:02.477Z,102649.50
2023-05-23T22:32:29.385Z,102644.38
2023-05-23T22:34:58.643Z,102643.94
2023-05-23T22:37:27.708Z,102640.78
2023-05-23T22:39:54.174Z,102644.44
2023-05-23T22:42:25.551Z,102641.50
2023-05-23T22:44:52.482Z,102638.31
2023-05-23T22:47:23.813Z,102644.59
2023-05-23T22:49:53.985Z,102638.09
2023-05-23T22:52:20.518Z,102639.13
2023-05-23T22:54:49.201Z,102645.78
2023-05-23T22:57:15.714Z,102655.44
2023-05-23T22:59:44.795Z,102645.44
2023-05-23T23:02:16.065Z,102646.16
2023-05-23T23:04:44.224Z,102654.28
2023-05-23T23:07:11.405Z,102642.19
2023-05-23T23:09:37.952Z,102639.84
2023-05-23T23:12:07.184Z,102639.28
2023-05-23T23:14:35.910Z,102640.22
2023-05-23T23:17:03.321Z,102641.50
2023-05-23T23:19:29.861Z,102636.97
2023-05-23T23:22:01.984Z,102643.47
2023-05-23T23:24:28.505Z,102645.22
2023-05-23T23:26:59.971Z,102638.84
2023-05-23T23:29:28.813Z,102647.91
2023-05-23T23:31:58.898Z,102645.72
2023-05-23T23:34:26.338Z,102641.16
2023-05-23T23:36:52.844Z,102640.34
2023-05-23T23:39:21.676Z,102637.66
2023-05-23T23:41:48.344Z,102637.78
2023-05-23T23:44:17.409Z,102632.22
2023-05-23T23:46:43.952Z,102631.41
2023-05-23T23:49:10.621Z,102638.38
2023-05-23T23:51:37.127Z,102632.66
2023-05-23T23:54:03.677Z,102634.53
2023-05-23T23:56:34.912Z,102627.53
2023-05-23T23:59:01.531Z,102625.22
